sensor_id;sensor_type;location;lat;lon;timestamp;pressure;altitude;pressure_sealevel;temperature;humidity
25664;BME280;13522;50.018;20.014;2023-02-23T00:02:50;99049.02;;;1.21;100.00
25664;BME280;13522;50.018;20.014;2023-02-23T00:06:05;99048.38;;;1.16;100.00
25664;BME280;13522;50.018;20.014;2023-02-23T00:09:18;99043.69;;;1.05;100.00
25664;BME280;13522;50.018;20.014;2023-02-23T00:12:35;99049.08;;;1.02;100.00
25664;BME280;13522;50.018;20.014;2023-02-23T00:15:48;99055.30;;;1.00;100.00
25664;BME280;13522;50.018;20.014;2023-02-23T00:19:00;99047.85;;;0.92;100.00
25664;BME280;13522;50.018;20.014;2023-02-23T00:22:13;99047.72;;;0.95;100.00
25664;BME280;13522;50.018;20.014;2023-02-23T00:25:25;99046.55;;;1.01;100.00
25664;BME280;13522;50.018;20.014;2023-02-23T00:28:38;99046.95;;;0.93;100.00
25664;BME280;13522;50.018;20.014;2023-02-23T00:31:52;99045.41;;;0.89;100.00
25664;BME280;13522;50.018;20.014;2023-02-23T00:35:08;99050.69;;;0.87;100.00
25664;BME280;13522;50.018;20.014;2023-02-23T00:38:22;99049.31;;;0.80;100.00
25664;BME280;13522;50.018;20.014;2023-02-23T00:41:37;99049.31;;;0.80;100.00
25664;BME280;13522;50.018;20.014;2023-02-23T00:44:51;99046.48;;;0.85;100.00
25664;BME280;13522;50.018;20.014;2023-02-23T00:48:05;99048.54;;;0.78;100.00
25664;BME280;13522;50.018;20.014;2023-02-23T00:51:19;99049.39;;;0.79;100.00
25664;BME280;13522;50.018;20.014;2023-02-23T00:54:31;99053.13;;;0.73;100.00
25664;BME280;13522;50.018;20.014;2023-02-23T00:57:45;99054.75;;;0.76;100.00
25664;BME280;13522;50.018;20.014;2023-02-23T01:00:57;99056.05;;;0.67;100.00
25664;BME280;13522;50.018;20.014;2023-02-23T01:04:11;99053.43;;;0.67;100.00
25664;BME280;13522;50.018;20.014;2023-02-23T01:07:25;99053.77;;;0.61;100.00
25664;BME280;13522;50.018;20.014;2023-02-23T01:10:41;99051.28;;;0.58;100.00
25664;BME280;13522;50.018;20.014;2023-02-23T01:13:57;99045.15;;;0.59;100.00
25664;BME280;13522;50.018;20.014;2023-02-23T01:17:10;99046.91;;;0.59;100.00
25664;BME280;13522;50.018;20.014;2023-02-23T01:20:22;99039.92;;;0.59;100.00
25664;BME280;13522;50.018;20.014;2023-02-23T01:23:49;99041.77;;;0.57;100.00
25664;BME280;13522;50.018;20.014;2023-02-23T01:27:02;99046.52;;;0.49;100.00
25664;BME280;13522;50.018;20.014;2023-02-23T01:30:15;99042.40;;;0.44;100.00
25664;BME280;13522;50.018;20.014;2023-02-23T01:33:30;99040.64;;;0.44;100.00
25664;BME280;13522;50.018;20.014;2023-02-23T01:37:11;99038.33;;;0.38;100.00
25664;BME280;13522;50.018;20.014;2023-02-23T01:40:51;99034.33;;;0.31;100.00
25664;BME280;13522;50.018;20.014;2023-02-23T01:44:05;99027.34;;;0.32;100.00
25664;BME280;13522;50.018;20.014;2023-02-23T01:47:21;99031.72;;;0.31;100.00
25664;BME280;13522;50.018;20.014;2023-02-23T01:50:48;99025.72;;;0.29;100.00
25664;BME280;13522;50.018;20.014;2023-02-23T01:54:06;99026.70;;;0.27;100.00
25664;BME280;13522;50.018;20.014;2023-02-23T01:57:22;99026.49;;;0.31;100.00
25664;BME280;13522;50.018;20.014;2023-02-23T02:00:35;99016.25;;;0.27;100.00
25664;BME280;13522;50.018;20.014;2023-02-23T02:03:50;99013.56;;;0.28;100.00
25664;BME280;13522;50.018;20.014;2023-02-23T02:07:05;99007.81;;;0.22;100.00
25664;BME280;13522;50.018;20.014;2023-02-23T02:10:19;99012.18;;;0.21;100.00
25664;BME280;13522;50.018;20.014;2023-02-23T02:13:57;99011.48;;;0.18;100.00
25664;BME280;13522;50.018;20.014;2023-02-23T02:17:26;99007.03;;;0.20;100.00
25664;BME280;13522;50.018;20.014;2023-02-23T02:20:56;99013.37;;;0.14;100.00
25664;BME280;13522;50.018;20.014;2023-02-23T02:36:54;99013.95;;;0.02;100.00
25664;BME280;13522;50.018;20.014;2023-02-23T02:40:23;98998.64;;;-0.06;100.00
25664;BME280;13522;50.018;20.014;2023-02-23T02:43:42;98993.42;;;-0.06;100.00
25664;BME280;13522;50.018;20.014;2023-02-23T02:47:00;98999.66;;;-0.08;100.00
25664;BME280;13522;50.018;20.014;2023-02-23T02:50:16;98998.94;;;-0.12;100.00
25664;BME280;13522;50.018;20.014;2023-02-23T02:53:38;98992.89;;;-0.12;100.00
25664;BME280;13522;50.018;20.014;2023-02-23T02:56:54;98986.66;;;-0.10;100.00
25664;BME280;13522;50.018;20.014;2023-02-23T03:00:16;98992.61;;;-0.06;100.00
25664;BME280;13522;50.018;20.014;2023-02-23T03:03:45;98988.28;;;-0.07;100.00
25664;BME280;13522;50.018;20.014;2023-02-23T03:07:15;98997.25;;;-0.13;100.00
25664;BME280;13522;50.018;20.014;2023-02-23T03:10:51;98980.74;;;-0.13;100.00
25664;BME280;13522;50.018;20.014;2023-02-23T03:14:27;98985.27;;;-0.17;100.00
25664;BME280;13522;50.018;20.014;2023-02-23T03:17:59;98972.70;;;-0.27;100.00
25664;BME280;13522;50.018;20.014;2023-02-23T03:21:32;98981.11;;;-0.21;100.00
25664;BME280;13522;50.018;20.014;2023-02-23T03:25:07;98983.14;;;-0.27;100.00
25664;BME280;13522;50.018;20.014;2023-02-23T03:28:41;98989.30;;;-0.28;100.00
25664;BME280;13522;50.018;20.014;2023-02-23T03:32:12;98984.13;;;-0.30;100.00
25664;BME280;13522;50.018;20.014;2023-02-23T03:35:47;98983.42;;;-0.33;100.00
25664;BME280;13522;50.018;20.014;2023-02-23T03:39:21;98982.52;;;-0.32;100.00
25664;BME280;13522;50.018;20.014;2023-02-23T03:42:53;98984.44;;;-0.36;100.00
25664;BME280;13522;50.018;20.014;2023-02-23T03:46:24;98990.47;;;-0.35;100.00
25664;BME280;13522;50.018;20.014;2023-02-23T03:49:55;98986.27;;;-0.38;100.00
25664;BME280;13522;50.018;20.014;2023-02-23T03:53:25;98985.33;;;-0.37;100.00
25664;BME280;13522;50.018;20.014;2023-02-23T03:56:57;98984.64;;;-0.40;100.00
25664;BME280;13522;50.018;20.014;2023-02-23T04:00:28;98981.09;;;-0.39;100.00
25664;BME280;13522;50.018;20.014;2023-02-23T04:03:58;98989.16;;;-0.44;100.00
25664;BME280;13522;50.018;20.014;2023-02-23T04:07:25;98986.87;;;-0.51;100.00
25664;BME280;13522;50.018;20.014;2023-02-23T04:10:55;98987.80;;;-0.52;100.00
25664;BME280;13522;50.018;20.014;2023-02-23T04:14:29;98987.30;;;-0.60;100.00
25664;BME280;13522;50.018;20.014;2023-02-23T04:17:39;98991.45;;;-0.56;100.00
25664;BME280;13522;50.018;20.014;2023-02-23T04:20:51;98983.48;;;-0.53;100.00
25664;BME280;13522;50.018;20.014;2023-02-23T04:24:05;98987.14;;;-0.57;100.00
25664;BME280;13522;50.018;20.014;2023-02-23T04:27:17;98984.41;;;-0.54;100.00
25664;BME280;13522;50.018;20.014;2023-02-23T04:30:30;98986.36;;;-0.59;100.00
25664;BME280;13522;50.018;20.014;2023-02-23T04:33:55;98990.02;;;-0.63;100.00
25664;BME280;13522;50.018;20.014;2023-02-23T04:37:09;98992.63;;;-0.63;100.00
25664;BME280;13522;50.018;20.014;2023-02-23T04:40:21;98979.59;;;-0.63;100.00
25664;BME280;13522;50.018;20.014;2023-02-23T04:44:02;98980.59;;;-0.66;100.00
25664;BME280;13522;50.018;20.014;2023-02-23T04:47:42;98979.74;;;-0.66;100.00
25664;BME280;13522;50.018;20.014;2023-02-23T04:50:55;98975.46;;;-0.67;100.00
25664;BME280;13522;50.018;20.014;2023-02-23T04:54:07;98974.69;;;-0.69;100.00
25664;BME280;13522;50.018;20.014;2023-02-23T04:57:48;98972.97;;;-0.70;100.00
25664;BME280;13522;50.018;20.014;2023-02-23T05:04:47;98977.28;;;-0.69;100.00
25664;BME280;13522;50.018;20.014;2023-02-23T05:07:59;98973.83;;;-0.70;100.00
25664;BME280;13522;50.018;20.014;2023-02-23T05:11:11;98972.20;;;-0.72;100.00
25664;BME280;13522;50.018;20.014;2023-02-23T05:14:25;98971.41;;;-0.74;100.00
25664;BME280;13522;50.018;20.014;2023-02-23T05:17:47;98968.89;;;-0.76;100.00
25664;BME280;13522;50.018;20.014;2023-02-23T05:21:04;98973.40;;;-0.79;100.00
25664;BME280;13522;50.018;20.014;2023-02-23T05:24:17;98972.47;;;-0.78;100.00
25664;BME280;13522;50.018;20.014;2023-02-23T05:27:30;98974.22;;;-0.79;100.00
25664;BME280;13522;50.018;20.014;2023-02-23T05:30:55;98980.48;;;-0.83;100.00
25664;BME280;13522;50.018;20.014;2023-02-23T05:34:54;98985.66;;;-0.81;100.00
25664;BME280;13522;50.018;20.014;2023-02-23T05:38:34;98990.09;;;-0.83;100.00
25664;BME280;13522;50.018;20.014;2023-02-23T05:42:15;98981.26;;;-0.81;100.00
25664;BME280;13522;50.018;20.014;2023-02-23T05:45:28;98980.44;;;-0.81;100.00
25664;BME280;13522;50.018;20.014;2023-02-23T05:48:39;98984.80;;;-0.82;100.00
25664;BME280;13522;50.018;20.014;2023-02-23T05:51:51;98983.05;;;-0.81;100.00
25664;BME280;13522;50.018;20.014;2023-02-23T05:55:15;98983.67;;;-0.76;100.00
25664;BME280;13522;50.018;20.014;2023-02-23T06:10:33;98991.92;;;-0.67;100.00
25664;BME280;13522;50.018;20.014;2023-02-23T06:13:45;98989.91;;;-0.60;100.00
25664;BME280;13522;50.018;20.014;2023-02-23T06:16:57;98992.36;;;-0.57;100.00
25664;BME280;13522;50.018;20.014;2023-02-23T06:20:12;98984.26;;;-0.51;100.00
25664;BME280;13522;50.018;20.014;2023-02-23T06:23:24;98989.20;;;-0.45;100.00
25664;BME280;13522;50.018;20.014;2023-02-23T06:26:36;98988.88;;;-0.38;100.00
25664;BME280;13522;50.018;20.014;2023-02-23T06:29:49;98999.78;;;-0.30;100.00
25664;BME280;13522;50.018;20.014;2023-02-23T06:33:02;98993.58;;;-0.27;100.00
25664;BME280;13522;50.018;20.014;2023-02-23T06:36:15;98993.95;;;-0.16;100.00
25664;BME280;13522;50.018;20.014;2023-02-23T06:39:40;98995.78;;;-0.18;100.00
25664;BME280;13522;50.018;20.014;2023-02-23T06:42:52;98996.12;;;-0.07;100.00
25664;BME280;13522;50.018;20.014;2023-02-23T06:46:05;98994.93;;;0.00;100.00
25664;BME280;13522;50.018;20.014;2023-02-23T06:49:18;98998.23;;;0.04;100.00
25664;BME280;13522;50.018;20.014;2023-02-23T06:52:30;99000.31;;;0.14;100.00
25664;BME280;13522;50.018;20.014;2023-02-23T06:55:43;98993.69;;;0.26;100.00
25664;BME280;13522;50.018;20.014;2023-02-23T06:58:55;99003.09;;;0.47;100.00
25664;BME280;13522;50.018;20.014;2023-02-23T07:02:08;98998.11;;;0.59;100.00
25664;BME280;13522;50.018;20.014;2023-02-23T07:05:21;98989.58;;;0.73;100.00
25664;BME280;13522;50.018;20.014;2023-02-23T07:08:33;98991.64;;;0.83;100.00
25664;BME280;13522;50.018;20.014;2023-02-23T07:11:46;98995.08;;;1.01;100.00
25664;BME280;13522;50.018;20.014;2023-02-23T07:14:58;98994.70;;;0.92;100.00
25664;BME280;13522;50.018;20.014;2023-02-23T07:18:10;99000.85;;;1.08;100.00
25664;BME280;13522;50.018;20.014;2023-02-23T07:21:21;99000.84;;;1.25;100.00
25664;BME280;13522;50.018;20.014;2023-02-23T07:24:34;98997.63;;;1.52;100.00
25664;BME280;13522;50.018;20.014;2023-02-23T07:27:46;98991.36;;;1.55;100.00
25664;BME280;13522;50.018;20.014;2023-02-23T07:30:59;98993.50;;;1.64;100.00
25664;BME280;13522;50.018;20.014;2023-02-23T07:34:12;98991.56;;;1.67;100.00
25664;BME280;13522;50.018;20.014;2023-02-23T07:37:24;98997.75;;;1.82;99.95
25664;BME280;13522;50.018;20.014;2023-02-23T07:40:36;98991.57;;;1.83;99.96
25664;BME280;13522;50.018;20.014;2023-02-23T07:43:48;98993.77;;;2.06;99.32
25664;BME280;13522;50.018;20.014;2023-02-23T07:47:00;98987.09;;;1.85;100.00
25664;BME280;13522;50.018;20.014;2023-02-23T07:50:13;98986.85;;;2.05;99.87
25664;BME280;13522;50.018;20.014;2023-02-23T07:53:25;98982.38;;;2.07;99.21
25664;BME280;13522;50.018;20.014;2023-02-23T07:56:37;98977.21;;;2.21;99.11
25664;BME280;13522;50.018;20.014;2023-02-23T07:59:49;98979.48;;;2.27;98.75
25664;BME280;13522;50.018;20.014;2023-02-23T08:03:01;98982.23;;;2.40;98.71
25664;BME280;13522;50.018;20.014;2023-02-23T08:06:15;98980.66;;;2.37;98.31
25664;BME280;13522;50.018;20.014;2023-02-23T08:09:28;98975.85;;;2.59;98.21
25664;BME280;13522;50.018;20.014;2023-02-23T08:12:40;98973.23;;;2.59;96.68
25664;BME280;13522;50.018;20.014;2023-02-23T08:15:52;98979.52;;;2.57;97.43
25664;BME280;13522;50.018;20.014;2023-02-23T08:19:04;98971.45;;;2.90;97.38
25664;BME280;13522;50.018;20.014;2023-02-23T08:22:16;98974.67;;;3.23;96.11
25664;BME280;13522;50.018;20.014;2023-02-23T08:25:28;98969.44;;;3.51;95.34
25664;BME280;13522;50.018;20.014;2023-02-23T08:28:40;98970.39;;;3.64;95.15
25664;BME280;13522;50.018;20.014;2023-02-23T08:31:52;98960.33;;;3.71;94.01
25664;BME280;13522;50.018;20.014;2023-02-23T08:35:06;98967.28;;;3.72;93.10
25664;BME280;13522;50.018;20.014;2023-02-23T08:38:18;98967.67;;;4.06;93.10
25664;BME280;13522;50.018;20.014;2023-02-23T08:41:59;98965.13;;;4.46;90.88
25664;BME280;13522;50.018;20.014;2023-02-23T08:45:22;98954.84;;;4.68;89.62
25664;BME280;13522;50.018;20.014;2023-02-23T08:48:34;98955.76;;;5.06;88.10
25664;BME280;13522;50.018;20.014;2023-02-23T08:51:46;98956.18;;;5.25;86.18
25664;BME280;13522;50.018;20.014;2023-02-23T08:54:58;98956.19;;;5.50;85.16
25664;BME280;13522;50.018;20.014;2023-02-23T08:58:11;98952.59;;;5.51;83.82
25664;BME280;13522;50.018;20.014;2023-02-23T09:01:23;98943.21;;;6.08;82.65
25664;BME280;13522;50.018;20.014;2023-02-23T09:04:45;98947.40;;;5.87;82.75
25664;BME280;13522;50.018;20.014;2023-02-23T09:07:59;98945.70;;;5.86;82.66
25664;BME280;13522;50.018;20.014;2023-02-23T09:11:12;98942.39;;;6.08;82.29
25664;BME280;13522;50.018;20.014;2023-02-23T09:14:24;98936.53;;;6.63;81.82
25664;BME280;13522;50.018;20.014;2023-02-23T09:17:37;98939.17;;;6.63;79.67
25664;BME280;13522;50.018;20.014;2023-02-23T09:20:50;98939.25;;;6.85;79.92
25664;BME280;13522;50.018;20.014;2023-02-23T09:24:02;98941.70;;;7.10;78.72
25664;BME280;13522;50.018;20.014;2023-02-23T09:27:15;98932.13;;;7.20;78.12
25664;BME280;13522;50.018;20.014;2023-02-23T09:30:27;98932.63;;;7.36;78.44
25664;BME280;13522;50.018;20.014;2023-02-23T09:33:39;98925.55;;;7.37;78.16
25664;BME280;13522;50.018;20.014;2023-02-23T09:36:52;98931.65;;;7.37;79.76
25664;BME280;13522;50.018;20.014;2023-02-23T09:40:05;98926.61;;;7.45;77.41
25664;BME280;13522;50.018;20.014;2023-02-23T09:43:24;98931.73;;;7.03;79.04
25664;BME280;13522;50.018;20.014;2023-02-23T09:46:42;98928.97;;;7.04;80.44
25664;BME280;13522;50.018;20.014;2023-02-23T09:49:57;98931.98;;;6.65;82.46
25664;BME280;13522;50.018;20.014;2023-02-23T09:53:20;98925.60;;;7.02;80.47
25664;BME280;13522;50.018;20.014;2023-02-23T09:56:37;98923.47;;;7.07;80.09
25664;BME280;13522;50.018;20.014;2023-02-23T09:59:50;98922.41;;;7.32;81.10
25664;BME280;13522;50.018;20.014;2023-02-23T10:03:12;98927.30;;;7.03;80.64
25664;BME280;13522;50.018;20.014;2023-02-23T10:06:31;98923.73;;;7.26;79.22
25664;BME280;13522;50.018;20.014;2023-02-23T10:09:53;98922.75;;;7.16;80.55
25664;BME280;13522;50.018;20.014;2023-02-23T10:13:24;98913.16;;;7.26;79.80
25664;BME280;13522;50.018;20.014;2023-02-23T10:16:50;98907.41;;;7.32;81.20
25664;BME280;13522;50.018;20.014;2023-02-23T10:20:14;98897.80;;;7.42;80.69
25664;BME280;13522;50.018;20.014;2023-02-23T10:23:33;98898.74;;;7.41;80.18
25664;BME280;13522;50.018;20.014;2023-02-23T10:26:50;98896.56;;;7.13;80.59
25664;BME280;13522;50.018;20.014;2023-02-23T10:30:11;98903.08;;;7.64;79.84
25664;BME280;13522;50.018;20.014;2023-02-23T10:33:30;98898.03;;;7.28;81.89
25664;BME280;13522;50.018;20.014;2023-02-23T10:36:47;98895.04;;;7.33;80.24
25664;BME280;13522;50.018;20.014;2023-02-23T10:40:01;98893.70;;;7.27;83.14
25664;BME280;13522;50.018;20.014;2023-02-23T10:43:14;98886.86;;;7.36;80.89
25664;BME280;13522;50.018;20.014;2023-02-23T10:46:30;98888.66;;;7.35;80.79
25664;BME280;13522;50.018;20.014;2023-02-23T10:49:47;98881.59;;;7.25;80.41
25664;BME280;13522;50.018;20.014;2023-02-23T10:53:09;98882.05;;;7.52;82.13
25664;BME280;13522;50.018;20.014;2023-02-23T10:56:22;98871.84;;;7.47;81.29
25664;BME280;13522;50.018;20.014;2023-02-23T10:59:36;98862.23;;;7.68;82.04
25664;BME280;13522;50.018;20.014;2023-02-23T11:02:48;98864.78;;;8.02;81.21
25664;BME280;13522;50.018;20.014;2023-02-23T11:06:00;98857.02;;;8.32;79.30
25664;BME280;13522;50.018;20.014;2023-02-23T11:09:24;98858.38;;;8.47;80.55
25664;BME280;13522;50.018;20.014;2023-02-23T11:12:41;98850.38;;;8.79;79.48
25664;BME280;13522;50.018;20.014;2023-02-23T11:16:01;98841.59;;;8.99;77.36
25664;BME280;13522;50.018;20.014;2023-02-23T11:19:20;98837.38;;;8.96;78.66
25664;BME280;13522;50.018;20.014;2023-02-23T11:22:35;98828.92;;;8.82;76.74
25664;BME280;13522;50.018;20.014;2023-02-23T11:25:49;98821.95;;;9.01;75.71
25664;BME280;13522;50.018;20.014;2023-02-23T11:29:08;98818.56;;;9.29;75.96
25664;BME280;13522;50.018;20.014;2023-02-23T11:32:25;98817.89;;;8.97;75.76
25664;BME280;13522;50.018;20.014;2023-02-23T11:35:41;98816.90;;;9.28;76.23
25664;BME280;13522;50.018;20.014;2023-02-23T11:39:05;98800.27;;;9.66;75.23
25664;BME280;13522;50.018;20.014;2023-02-23T11:42:19;98799.09;;;9.49;75.33
25664;BME280;13522;50.018;20.014;2023-02-23T11:45:36;98796.73;;;9.46;74.51
25664;BME280;13522;50.018;20.014;2023-02-23T11:48:52;98803.32;;;9.61;75.15
25664;BME280;13522;50.018;20.014;2023-02-23T11:52:15;98794.67;;;9.69;74.86
25664;BME280;13522;50.018;20.014;2023-02-23T11:55:29;98791.08;;;9.80;73.82
25664;BME280;13522;50.018;20.014;2023-02-23T11:58:45;98792.77;;;10.09;75.16
25664;BME280;13522;50.018;20.014;2023-02-23T12:02:03;98788.02;;;9.84;74.72
25664;BME280;13522;50.018;20.014;2023-02-23T12:05:22;98786.03;;;9.77;75.18
25664;BME280;13522;50.018;20.014;2023-02-23T12:08:41;98779.77;;;9.97;75.01
25664;BME280;13522;50.018;20.014;2023-02-23T12:11:59;98779.61;;;9.70;73.51
25664;BME280;13522;50.018;20.014;2023-02-23T12:15:18;98768.44;;;9.56;75.21
25664;BME280;13522;50.018;20.014;2023-02-23T12:18:43;98773.75;;;9.66;77.83
25664;BME280;13522;50.018;20.014;2023-02-23T12:22:03;98767.59;;;9.56;74.81
25664;BME280;13522;50.018;20.014;2023-02-23T12:25:22;98763.55;;;9.61;76.74
25664;BME280;13522;50.018;20.014;2023-02-23T12:28:39;98759.47;;;9.38;76.15
25664;BME280;13522;50.018;20.014;2023-02-23T12:31:57;98759.08;;;9.52;77.31
25664;BME280;13522;50.018;20.014;2023-02-23T12:35:17;98755.44;;;9.53;75.93
25664;BME280;13522;50.018;20.014;2023-02-23T12:38:41;98758.06;;;9.34;77.60
25664;BME280;13522;50.018;20.014;2023-02-23T12:42:03;98744.64;;;9.26;77.39
25664;BME280;13522;50.018;20.014;2023-02-23T12:45:21;98748.16;;;9.36;78.58
25664;BME280;13522;50.018;20.014;2023-02-23T12:48:43;98748.58;;;9.41;78.11
25664;BME280;13522;50.018;20.014;2023-02-23T12:52:01;98733.77;;;9.39;77.40
25664;BME280;13522;50.018;20.014;2023-02-23T12:55:20;98733.12;;;9.46;79.06
25664;BME280;13522;50.018;20.014;2023-02-23T12:58:39;98729.88;;;9.43;77.57
25664;BME280;13522;50.018;20.014;2023-02-23T13:01:57;98716.77;;;9.41;77.79
25664;BME280;13522;50.018;20.014;2023-02-23T13:05:21;98719.01;;;9.36;78.40
25664;BME280;13522;50.018;20.014;2023-02-23T13:08:40;98705.51;;;9.58;80.10
25664;BME280;13522;50.018;20.014;2023-02-23T13:12:16;98700.06;;;9.70;78.86
25664;BME280;13522;50.018;20.014;2023-02-23T13:15:39;98704.52;;;9.69;78.85
25664;BME280;13522;50.018;20.014;2023-02-23T13:19:09;98698.11;;;9.62;79.00
25664;BME280;13522;50.018;20.014;2023-02-23T13:22:25;98703.55;;;9.80;79.64
25664;BME280;13522;50.018;20.014;2023-02-23T13:25:47;98695.30;;;9.73;79.61
25664;BME280;13522;50.018;20.014;2023-02-23T13:29:04;98695.31;;;9.63;78.49
25664;BME280;13522;50.018;20.014;2023-02-23T13:32:22;98690.70;;;9.66;77.11
25664;BME280;13522;50.018;20.014;2023-02-23T13:35:38;98689.72;;;9.67;78.61
25664;BME280;13522;50.018;20.014;2023-02-23T13:39:05;98689.72;;;9.67;80.42
25664;BME280;13522;50.018;20.014;2023-02-23T13:42:38;98681.34;;;9.71;79.88
25664;BME280;13522;50.018;20.014;2023-02-23T13:46:16;98677.84;;;9.71;80.97
25664;BME280;13522;50.018;20.014;2023-02-23T13:49:39;98677.45;;;9.66;79.36
25664;BME280;13522;50.018;20.014;2023-02-23T13:52:56;98664.89;;;9.68;82.29
25664;BME280;13522;50.018;20.014;2023-02-23T13:56:15;98667.69;;;9.66;81.64
25664;BME280;13522;50.018;20.014;2023-02-23T13:59:36;98665.18;;;9.65;80.33
25664;BME280;13522;50.018;20.014;2023-02-23T14:02:53;98661.39;;;9.67;80.77
25664;BME280;13522;50.018;20.014;2023-02-23T14:06:10;98656.09;;;9.57;81.26
25664;BME280;13522;50.018;20.014;2023-02-23T14:09:29;98656.80;;;9.59;81.17
25664;BME280;13522;50.018;20.014;2023-02-23T14:16:18;98650.09;;;9.55;81.60
25664;BME280;13522;50.018;20.014;2023-02-23T14:19:36;98646.75;;;9.53;82.45
25664;BME280;13522;50.018;20.014;2023-02-23T14:23:27;98648.44;;;9.54;81.92
25664;BME280;13522;50.018;20.014;2023-02-23T14:26:44;98639.49;;;9.46;82.62
25664;BME280;13522;50.018;20.014;2023-02-23T14:30:24;98639.89;;;9.51;82.13
25664;BME280;13522;50.018;20.014;2023-02-23T14:33:49;98636.00;;;9.45;82.59
25664;BME280;13522;50.018;20.014;2023-02-23T14:37:11;98630.99;;;9.42;83.32
25664;BME280;13522;50.018;20.014;2023-02-23T14:40:30;98629.16;;;9.33;82.53
25664;BME280;13522;50.018;20.014;2023-02-23T14:43:43;98627.91;;;9.37;82.30
25664;BME280;13522;50.018;20.014;2023-02-23T14:46:59;98624.84;;;9.32;83.03
25664;BME280;13522;50.018;20.014;2023-02-23T14:50:16;98618.84;;;9.30;84.05
25664;BME280;13522;50.018;20.014;2023-02-23T14:53:33;98615.91;;;9.33;84.19
25664;BME280;13522;50.018;20.014;2023-02-23T14:56:49;98615.35;;;9.30;83.68
25664;BME280;13522;50.018;20.014;2023-02-23T15:00:10;98611.45;;;9.24;83.66
25664;BME280;13522;50.018;20.014;2023-02-23T15:03:27;98603.06;;;9.19;84.48
25664;BME280;13522;50.018;20.014;2023-02-23T15:06:41;98600.41;;;9.19;84.34
25664;BME280;13522;50.018;20.014;2023-02-23T15:09:58;98596.11;;;9.18;83.80
25664;BME280;13522;50.018;20.014;2023-02-23T15:13:17;98592.20;;;9.13;85.22
25664;BME280;13522;50.018;20.014;2023-02-23T15:16:32;98592.46;;;9.10;86.09
25664;BME280;13522;50.018;20.014;2023-02-23T15:19:46;98585.91;;;9.04;84.95
25664;BME280;13522;50.018;20.014;2023-02-23T15:23:03;98587.16;;;9.00;86.84
25664;BME280;13522;50.018;20.014;2023-02-23T15:26:23;98581.31;;;8.97;87.19
25664;BME280;13522;50.018;20.014;2023-02-23T15:29:38;98568.31;;;8.84;87.47
25664;BME280;13522;50.018;20.014;2023-02-23T15:32:59;98570.02;;;8.85;87.82
25664;BME280;13522;50.018;20.014;2023-02-23T15:36:18;98579.31;;;8.80;89.13
25664;BME280;13522;50.018;20.014;2023-02-23T15:39:36;98572.05;;;8.72;89.02
25664;BME280;13522;50.018;20.014;2023-02-23T15:42:52;98570.66;;;8.68;88.58
25664;BME280;13522;50.018;20.014;2023-02-23T15:46:06;98565.09;;;8.61;88.91
25664;BME280;13522;50.018;20.014;2023-02-23T15:49:29;98569.38;;;8.53;88.98
25664;BME280;13522;50.018;20.014;2023-02-23T15:52:47;98565.72;;;8.44;90.08
25664;BME280;13522;50.018;20.014;2023-02-23T15:56:09;98565.16;;;8.41;90.04
25664;BME280;13522;50.018;20.014;2023-02-23T15:59:27;98558.03;;;8.32;89.88
25664;BME280;13522;50.018;20.014;2023-02-23T16:02:40;98562.88;;;8.27;90.96
25664;BME280;13522;50.018;20.014;2023-02-23T16:06:02;98558.09;;;8.21;91.24
25664;BME280;13522;50.018;20.014;2023-02-23T16:09:27;98555.02;;;8.16;91.71
25664;BME280;13522;50.018;20.014;2023-02-23T16:12:40;98554.95;;;8.06;91.41
25664;BME280;13522;50.018;20.014;2023-02-23T16:15:55;98553.57;;;8.02;92.37
25664;BME280;13522;50.018;20.014;2023-02-23T16:19:10;98550.33;;;7.99;92.76
25664;BME280;13522;50.018;20.014;2023-02-23T16:22:25;98552.55;;;7.94;93.40
25664;BME280;13522;50.018;20.014;2023-02-23T16:25:40;98550.86;;;7.93;94.00
25664;BME280;13522;50.018;20.014;2023-02-23T16:28:56;98550.15;;;7.90;93.18
25664;BME280;13522;50.018;20.014;2023-02-23T16:32:14;98550.43;;;7.87;93.16
25664;BME280;13522;50.018;20.014;2023-02-23T16:35:33;98550.67;;;7.84;93.79
25664;BME280;13522;50.018;20.014;2023-02-23T16:38:58;98546.76;;;7.79;94.12
25664;BME280;13522;50.018;20.014;2023-02-23T16:42:27;98546.19;;;7.75;94.18
25664;BME280;13522;50.018;20.014;2023-02-23T16:45:30;98548.27;;;7.72;94.32
25664;BME280;13522;50.018;20.014;2023-02-23T16:48:44;98540.01;;;7.65;94.51
25664;BME280;13522;50.018;20.014;2023-02-23T16:51:57;98543.88;;;7.61;94.68
25664;BME280;13522;50.018;20.014;2023-02-23T16:55:12;98537.17;;;7.57;95.54
25664;BME280;13522;50.018;20.014;2023-02-23T16:58:28;98551.23;;;7.58;95.16
25664;BME280;13522;50.018;20.014;2023-02-23T17:01:41;98544.39;;;7.55;95.64
25664;BME280;13522;50.018;20.014;2023-02-23T17:04:55;98537.45;;;7.54;95.81
25664;BME280;13522;50.018;20.014;2023-02-23T17:08:07;98532.98;;;7.55;95.41
25664;BME280;13522;50.018;20.014;2023-02-23T17:11:20;98537.97;;;7.48;95.08
25664;BME280;13522;50.018;20.014;2023-02-23T17:14:32;98540.79;;;7.36;96.53
25664;BME280;13522;50.018;20.014;2023-02-23T17:17:44;98532.43;;;7.31;96.93
25664;BME280;13522;50.018;20.014;2023-02-23T17:20:59;98534.23;;;7.30;96.81
25664;BME280;13522;50.018;20.014;2023-02-23T17:24:13;98534.09;;;7.32;96.93
25664;BME280;13522;50.018;20.014;2023-02-23T17:27:27;98535.17;;;7.29;96.77
25664;BME280;13522;50.018;20.014;2023-02-23T17:30:42;98531.45;;;7.32;96.46
25664;BME280;13522;50.018;20.014;2023-02-23T17:33:54;98531.31;;;7.33;96.09
25664;BME280;13522;50.018;20.014;2023-02-23T17:37:07;98527.02;;;7.32;96.25
25664;BME280;13522;50.018;20.014;2023-02-23T17:40:22;98521.91;;;7.20;97.81
25664;BME280;13522;50.018;20.014;2023-02-23T17:43:38;98520.76;;;7.13;98.14
25664;BME280;13522;50.018;20.014;2023-02-23T17:46:50;98513.92;;;7.10;98.47
25664;BME280;13522;50.018;20.014;2023-02-23T17:50:03;98508.64;;;7.10;98.27
25664;BME280;13522;50.018;20.014;2023-02-23T17:53:16;98504.78;;;7.14;98.25